createdAt,value
2018-03-03T00:00:13.829Z,16.66
2018-03-03T00:01:13.793Z,16.64
2018-03-03T00:02:13.810Z,16.61
2018-03-03T00:03:13.829Z,16.64
2018-03-03T00:04:13.808Z,16.62
2018-03-03T00:05:13.800Z,16.6
2018-03-03T00:06:13.831Z,16.63
2018-03-03T00:07:13.791Z,16.59
2018-03-03T00:08:13.806Z,16.62
2018-03-03T00:09:13.786Z,16.63
2018-03-03T00:10:13.786Z,16.63
2018-03-03T00:11:13.812Z,16.62
2018-03-03T00:12:13.813Z,16.6
2018-03-03T00:13:13.800Z,16.61
2018-03-03T00:14:13.819Z,16.58
2018-03-03T00:15:13.831Z,16.58
2018-03-03T00:16:13.780Z,16.59
2018-03-03T00:17:13.814Z,16.58
2018-03-03T00:18:13.820Z,16.55
2018-03-03T00:19:13.783Z,16.56
2018-03-03T00:20:13.848Z,16.6
2018-03-03T00:21:13.806Z,16.58
2018-03-03T00:22:13.825Z,16.58
2018-03-03T00:23:13.806Z,16.56
2018-03-03T00:24:13.809Z,16.55
2018-03-03T00:25:13.808Z,16.53
2018-03-03T00:26:13.817Z,16.52
2018-03-03T00:27:13.835Z,16.54
2018-03-03T00:28:13.778Z,16.54
2018-03-03T00:29:13.768Z,16.49
2018-03-03T00:30:13.788Z,16.54
2018-03-03T00:31:13.805Z,16.52
2018-03-03T00:32:13.828Z,16.52
2018-03-03T00:33:13.788Z,16.54
2018-03-03T00:34:13.784Z,16.54
2018-03-03T00:35:13.794Z,16.52
2018-03-03T00:36:13.805Z,16.51
2018-03-03T00:37:13.813Z,16.52
2018-03-03T00:38:13.809Z,16.49
2018-03-03T00:39:13.807Z,16.45
2018-03-03T00:40:13.803Z,16.48
2018-03-03T00:41:13.802Z,16.51
2018-03-03T00:42:13.788Z,16.47
2018-03-03T00:43:13.782Z,16.47
2018-03-03T00:44:13.794Z,16.46
2018-03-03T00:45:13.875Z,16.49
2018-03-03T00:46:13.896Z,16.47
2018-03-03T00:47:13.794Z,16.46
2018-03-03T00:48:13.791Z,16.47
2018-03-03T00:49:13.794Z,16.43
2018-03-03T00:50:13.804Z,16.45
2018-03-03T00:51:13.787Z,16.44
2018-03-03T00:52:13.787Z,16.46
2018-03-03T00:53:13.798Z,16.44
2018-03-03T00:54:13.809Z,16.42
2018-03-03T00:55:13.788Z,16.44
2018-03-03T00:56:13.819Z,16.43
2018-03-03T00:57:13.805Z,16.43
2018-03-03T00:58:13.800Z,16.44
2018-03-03T00:59:13.799Z,16.42
2018-03-03T01:00:13.815Z,16.42
2018-03-03T01:01:13.804Z,16.4
2018-03-03T01:02:13.791Z,16.38
2018-03-03T01:03:13.786Z,16.37
2018-03-03T01:04:13.795Z,16.41
2018-03-03T01:05:13.811Z,16.42
2018-03-03T01:06:13.780Z,16.42
2018-03-03T01:07:13.799Z,16.38
2018-03-03T01:08:13.801Z,16.38
2018-03-03T01:09:13.770Z,16.35
2018-03-03T01:10:13.783Z,16.36
2018-03-03T01:11:13.802Z,16.36
2018-03-03T01:12:13.798Z,16.35
2018-03-03T01:13:13.754Z,16.36
2018-03-03T01:14:13.785Z,16.37
2018-03-03T01:15:13.795Z,16.38
2018-03-03T01:16:13.799Z,16.37
2018-03-03T01:17:13.797Z,16.34
2018-03-03T01:18:13.790Z,16.38
2018-03-03T01:19:13.772Z,16.37
2018-03-03T01:20:13.763Z,16.33
2018-03-03T01:21:13.795Z,16.35
2018-03-03T01:22:13.804Z,16.32
2018-03-03T01:23:13.798Z,16.3
2018-03-03T01:24:13.797Z,16.31
2018-03-03T01:25:13.789Z,16.34
2018-03-03T01:26:13.783Z,16.34
2018-03-03T01:27:14.218Z,16.33
2018-03-03T01:28:13.785Z,16.37
2018-03-03T01:29:13.793Z,16.33
2018-03-03T01:30:13.771Z,16.29
2018-03-03T01:31:13.779Z,16.32
2018-03-03T01:32:13.783Z,16.32
2018-03-03T01:33:13.784Z,16.27
2018-03-03T01:34:13.801Z,16.32
2018-03-03T01:35:13.774Z,16.29
2018-03-03T01:36:13.783Z,16.27
2018-03-03T01:37:13.816Z,16.26
2018-03-03T01:38:13.777Z,16.26
2018-03-03T01:39:13.828Z,16.25
2018-03-03T01:40:13.777Z,16.27
2018-03-03T01:41:13.768Z,16.25
2018-03-03T01:42:13.779Z,16.27
2018-03-03T01:43:13.781Z,16.24
2018-03-03T01:44:13.782Z,16.23
2018-03-03T01:45:13.787Z,16.25
2018-03-03T01:46:13.770Z,16.27
2018-03-03T01:47:13.781Z,16.22
2018-03-03T01:48:13.784Z,16.23
2018-03-03T01:49:13.766Z,16.22
2018-03-03T01:50:13.756Z,16.23
2018-03-03T01:51:13.779Z,16.24
2018-03-03T01:52:13.772Z,16.24
2018-03-03T01:53:13.775Z,16.21
2018-03-03T01:54:13.781Z,16.22
2018-03-03T01:55:13.772Z,16.2
2018-03-03T01:56:13.756Z,16.2
2018-03-03T01:57:13.756Z,16.21
2018-03-03T01:58:13.797Z,16.18
2018-03-03T01:59:13.793Z,16.19
2018-03-03T02:00:13.758Z,16.19
2018-03-03T02:01:13.772Z,16.19
2018-03-03T02:02:13.745Z,16.17
2018-03-03T02:03:13.778Z,16.17
2018-03-03T02:04:13.758Z,16.17
2018-03-03T02:05:13.786Z,16.15
2018-03-03T02:06:13.784Z,16.15
2018-03-03T02:07:13.774Z,16.15
2018-03-03T02:08:13.773Z,16.16
2018-03-03T02:09:13.766Z,16.15
2018-03-03T02:10:13.762Z,16.14
2018-03-03T02:11:13.761Z,16.15
2018-03-03T02:12:13.791Z,16.15
2018-03-03T02:13:13.751Z,16.19
2018-03-03T02:14:13.800Z,16.13
2018-03-03T02:15:13.769Z,16.12
2018-03-03T02:16:13.777Z,16.13
2018-03-03T02:17:13.800Z,16.14
2018-03-03T02:18:13.734Z,16.12
2018-03-03T02:19:13.763Z,16.12
2018-03-03T02:20:13.761Z,16.13
2018-03-03T02:21:13.755Z,16.12
2018-03-03T02:22:13.789Z,16.09
2018-03-03T02:23:13.749Z,16.1
2018-03-03T02:24:13.760Z,16.1
2018-03-03T02:25:13.761Z,16.11
2018-03-03T02:26:13.755Z,16.11
2018-03-03T02:27:13.820Z,16.08
2018-03-03T02:28:13.757Z,16.09
2018-03-03T02:29:13.759Z,16.08
2018-03-03T02:30:13.753Z,16.08
2018-03-03T02:31:13.776Z,16.06
2018-03-03T02:32:13.766Z,16.07
2018-03-03T02:33:13.782Z,16.07
2018-03-03T02:34:13.764Z,16.05
2018-03-03T02:35:13.778Z,16.05
2018-03-03T02:36:13.747Z,16.06
2018-03-03T02:37:13.779Z,16.03
2018-03-03T02:38:13.766Z,16.05
2018-03-03T02:39:13.761Z,16.04
2018-03-03T02:40:13.774Z,16.03
2018-03-03T02:41:13.749Z,16.03
2018-03-03T02:42:13.806Z,16.03
2018-03-03T02:43:13.767Z,16.04
2018-03-03T02:44:13.757Z,16.03
2018-03-03T02:45:13.743Z,16.02
2018-03-03T02:46:13.855Z,16.01
2018-03-03T02:47:14.128Z,16
2018-03-03T02:48:13.752Z,16.04
2018-03-03T02:49:13.759Z,16.01
2018-03-03T02:50:13.738Z,15.99
2018-03-03T02:51:13.750Z,16
2018-03-03T02:52:13.767Z,15.99
2018-03-03T02:53:13.805Z,16.01
2018-03-03T02:54:13.768Z,16.01
2018-03-03T02:55:13.773Z,16.01
2018-03-03T02:56:13.754Z,15.99
2018-03-03T02:57:13.745Z,15.99
2018-03-03T02:58:13.781Z,15.97
2018-03-03T02:59:13.772Z,15.98
2018-03-03T03:00:13.813Z,15.97
2018-03-03T03:01:13.754Z,15.96
2018-03-03T03:02:13.749Z,15.95
2018-03-03T03:03:13.782Z,15.95
2018-03-03T03:04:13.789Z,15.93
2018-03-03T03:05:13.860Z,15.95
2018-03-03T03:06:13.748Z,15.94
2018-03-03T03:07:13.857Z,15.95
2018-03-03T03:08:13.749Z,15.95
2018-03-03T03:09:13.595Z,15.93
2018-03-03T03:10:13.771Z,15.92
2018-03-03T03:11:13.780Z,15.94
2018-03-03T03:12:13.768Z,15.92
2018-03-03T03:13:13.736Z,15.93
2018-03-03T03:14:13.771Z,15.93
2018-03-03T03:15:13.782Z,15.91
2018-03-03T03:16:13.758Z,15.91
2018-03-03T03:17:13.732Z,15.91
2018-03-03T03:18:13.720Z,15.92
2018-03-03T03:19:13.747Z,15.92
2018-03-03T03:20:13.744Z,15.9
2018-03-03T03:21:13.754Z,15.93
2018-03-03T03:22:13.748Z,15.9
2018-03-03T03:23:13.739Z,15.89
2018-03-03T03:24:13.754Z,15.9
2018-03-03T03:25:13.729Z,15.9
2018-03-03T03:26:13.766Z,15.9
2018-03-03T03:27:13.745Z,15.88
2018-03-03T03:28:13.740Z,15.9
2018-03-03T03:29:13.753Z,15.91
2018-03-03T03:30:13.728Z,15.9
2018-03-03T03:31:13.780Z,15.88
2018-03-03T03:32:13.749Z,15.89
2018-03-03T03:33:13.715Z,15.87
2018-03-03T03:34:13.734Z,15.86
2018-03-03T03:35:13.813Z,15.88
2018-03-03T03:36:13.766Z,15.87
2018-03-03T03:37:13.752Z,15.88
2018-03-03T03:38:13.743Z,15.86
2018-03-03T03:39:13.742Z,15.85
2018-03-03T03:40:13.747Z,15.87
2018-03-03T03:41:13.756Z,15.86
2018-03-03T03:42:14.027Z,15.84
2018-03-03T03:43:13.735Z,15.86
2018-03-03T03:44:13.732Z,15.86
2018-03-03T03:45:13.723Z,15.84
2018-03-03T03:46:13.743Z,15.85
2018-03-03T03:47:13.756Z,15.84
2018-03-03T03:48:13.764Z,15.84
2018-03-03T03:49:13.716Z,15.84
2018-03-03T03:50:13.732Z,15.83
2018-03-03T03:51:13.718Z,15.86
2018-03-03T03:52:13.739Z,15.83
2018-03-03T03:53:13.746Z,15.83
2018-03-03T03:54:13.744Z,15.83
2018-03-03T03:55:13.739Z,15.82
2018-03-03T03:56:13.728Z,15.81
2018-03-03T03:57:13.716Z,15.8
2018-03-03T03:58:13.802Z,15.82
2018-03-03T03:59:13.756Z,15.81
2018-03-03T04:00:13.723Z,15.8
2018-03-03T04:01:13.702Z,15.79
2018-03-03T04:02:13.744Z,15.82
2018-03-03T04:03:13.710Z,15.79
2018-03-03T04:04:13.762Z,15.8
2018-03-03T04:05:13.703Z,15.78
2018-03-03T04:06:13.720Z,15.78
2018-03-03T04:07:13.744Z,15.77
2018-03-03T04:08:13.701Z,15.79
2018-03-03T04:09:13.737Z,15.79
2018-03-03T04:10:13.727Z,15.76
2018-03-03T04:11:13.732Z,15.76
2018-03-03T04:12:13.606Z,15.74
2018-03-03T04:13:13.723Z,15.79
2018-03-03T04:14:13.725Z,15.79
2018-03-03T04:15:13.727Z,15.77
2018-03-03T04:16:13.724Z,15.77
2018-03-03T04:17:13.759Z,15.76
2018-03-03T04:18:13.733Z,15.78
2018-03-03T04:19:13.725Z,15.76
2018-03-03T04:20:13.701Z,15.76
2018-03-03T04:21:13.735Z,15.8
2018-03-03T04:22:13.742Z,15.77
2018-03-03T04:23:13.741Z,15.76
2018-03-03T04:24:13.715Z,15.77
2018-03-03T04:25:13.705Z,15.77
2018-03-03T04:26:13.709Z,15.78
2018-03-03T04:27:13.750Z,15.77
2018-03-03T04:28:13.726Z,15.76
2018-03-03T04:29:13.748Z,15.75
2018-03-03T04:30:13.718Z,15.75
2018-03-03T04:31:13.702Z,15.75
2018-03-03T04:32:13.696Z,15.75
2018-03-03T04:33:13.685Z,15.74
2018-03-03T04:34:13.724Z,15.73
2018-03-03T04:35:13.708Z,15.73
2018-03-03T04:36:13.714Z,15.74
2018-03-03T04:37:13.693Z,15.73
2018-03-03T04:38:13.712Z,15.72
2018-03-03T04:39:13.751Z,15.71
2018-03-03T04:40:13.710Z,15.74
2018-03-03T04:41:13.722Z,15.71
2018-03-03T04:42:13.729Z,15.7
2018-03-03T04:43:13.720Z,15.71
2018-03-03T04:44:13.735Z,15.72
2018-03-03T04:45:13.725Z,15.72
2018-03-03T04:46:13.729Z,15.71
2018-03-03T04:47:13.816Z,15.71
2018-03-03T04:48:13.824Z,15.7
2018-03-03T04:49:13.764Z,15.7
2018-03-03T04:50:13.696Z,15.7
2018-03-03T04:51:13.688Z,15.73
2018-03-03T04:52:13.692Z,15.72
2018-03-03T04:53:13.692Z,15.73
2018-03-03T04:54:13.715Z,15.75
2018-03-03T04:55:13.686Z,15.74
2018-03-03T04:56:13.988Z,15.76
2018-03-03T04:57:13.687Z,15.74
2018-03-03T04:58:13.713Z,15.73
2018-03-03T04:59:13.711Z,15.75
2018-03-03T05:00:13.705Z,15.74
2018-03-03T05:01:13.755Z,15.74
2018-03-03T05:02:13.728Z,15.74
2018-03-03T05:03:13.702Z,15.75
2018-03-03T05:04:13.712Z,15.76
2018-03-03T05:05:13.683Z,15.75
2018-03-03T05:06:13.748Z,15.75
2018-03-03T05:07:13.730Z,15.74
2018-03-03T05:08:13.704Z,15.75
2018-03-03T05:09:13.698Z,15.76
2018-03-03T05:10:13.697Z,15.75
2018-03-03T05:11:13.694Z,15.74
2018-03-03T05:12:13.985Z,15.76
2018-03-03T05:13:13.717Z,15.77
2018-03-03T05:14:13.764Z,15.78
2018-03-03T05:15:13.695Z,15.78
2018-03-03T05:16:13.705Z,15.79
2018-03-03T05:17:13.730Z,15.79
2018-03-03T05:18:13.692Z,15.81
2018-03-03T05:19:13.699Z,15.81
2018-03-03T05:20:13.718Z,15.82
2018-03-03T05:21:13.701Z,15.83
2018-03-03T05:22:13.964Z,15.84
2018-03-03T05:23:13.706Z,15.86
2018-03-03T05:24:13.713Z,15.86
2018-03-03T05:25:13.713Z,15.87
2018-03-03T05:26:13.703Z,15.87
2018-03-03T05:27:13.735Z,15.89
2018-03-03T05:28:13.710Z,15.91
2018-03-03T05:29:13.699Z,15.91
2018-03-03T05:30:13.701Z,15.92
2018-03-03T05:31:13.693Z,15.93
2018-03-03T05:32:13.729Z,15.94
2018-03-03T05:33:13.700Z,15.95
2018-03-03T05:34:13.710Z,15.97
2018-03-03T05:35:13.690Z,15.99
2018-03-03T05:36:13.712Z,15.99
2018-03-03T05:37:13.730Z,16.02
2018-03-03T05:38:13.682Z,16.04
2018-03-03T05:39:13.679Z,16.05
2018-03-03T05:40:13.702Z,16.08
2018-03-03T05:41:13.690Z,16.09
2018-03-03T05:42:13.697Z,16.11
2018-03-03T05:43:13.695Z,16.11
2018-03-03T05:44:13.692Z,16.17
2018-03-03T05:45:13.704Z,16.17
2018-03-03T05:46:13.689Z,16.2
2018-03-03T05:47:13.720Z,16.21
2018-03-03T05:48:13.715Z,16.22
2018-03-03T05:49:13.679Z,16.24
2018-03-03T05:50:13.661Z,16.26
2018-03-03T05:51:13.729Z,16.27
2018-03-03T05:52:13.691Z,16.3
2018-03-03T05:53:13.722Z,16.32
2018-03-03T05:54:13.693Z,16.34
2018-03-03T05:55:13.684Z,16.35
2018-03-03T05:56:13.683Z,16.36
2018-03-03T05:57:13.685Z,16.37
2018-03-03T05:58:13.705Z,16.4
2018-03-03T05:59:13.789Z,16.42
2018-03-03T06:00:13.693Z,16.44
2018-03-03T06:01:13.701Z,16.44
2018-03-03T06:02:13.714Z,16.46
2018-03-03T06:03:13.683Z,16.48
2018-03-03T06:04:13.678Z,16.49
2018-03-03T06:05:13.669Z,16.49
2018-03-03T06:06:13.675Z,16.52
2018-03-03T06:07:13.701Z,16.53
2018-03-03T06:08:13.689Z,16.55
2018-03-03T06:09:13.684Z,16.56
2018-03-03T06:10:13.677Z,16.57
2018-03-03T06:11:13.673Z,16.58
2018-03-03T06:12:13.715Z,16.59
2018-03-03T06:13:13.693Z,16.6
2018-03-03T06:14:13.660Z,16.63
2018-03-03T06:15:13.660Z,16.63
2018-03-03T06:16:13.656Z,16.65
2018-03-03T06:17:13.685Z,16.66
2018-03-03T06:18:13.717Z,16.67
2018-03-03T06:19:13.695Z,16.7
2018-03-03T06:20:13.673Z,16.7
2018-03-03T06:21:13.674Z,16.71
2018-03-03T06:22:13.690Z,16.72
2018-03-03T06:23:13.706Z,16.73
2018-03-03T06:24:13.683Z,16.74
2018-03-03T06:25:13.682Z,16.76
2018-03-03T06:26:13.690Z,16.77
2018-03-03T06:27:13.668Z,16.78
2018-03-03T06:28:13.723Z,16.79
2018-03-03T06:29:13.726Z,16.8
2018-03-03T06:30:13.678Z,16.81
2018-03-03T06:31:13.678Z,16.82
2018-03-03T06:32:13.679Z,16.83
2018-03-03T06:33:13.684Z,16.84
2018-03-03T06:34:13.697Z,16.84
2018-03-03T06:35:13.951Z,16.85
2018-03-03T06:36:13.648Z,16.87
2018-03-03T06:37:13.673Z,16.87
2018-03-03T06:38:13.680Z,16.88
2018-03-03T06:39:13.678Z,16.89
2018-03-03T06:40:13.696Z,16.89
2018-03-03T06:41:13.673Z,16.9
2018-03-03T06:42:13.701Z,16.91
2018-03-03T06:43:13.663Z,16.93
2018-03-03T06:44:13.677Z,16.93
2018-03-03T06:45:13.694Z,16.94
2018-03-03T06:46:13.772Z,16.95
2018-03-03T06:47:13.675Z,16.95
2018-03-03T06:48:13.771Z,16.96
2018-03-03T06:49:13.760Z,16.98
2018-03-03T06:50:13.681Z,16.97
2018-03-03T06:51:13.670Z,16.99
2018-03-03T06:52:13.951Z,16.99
2018-03-03T06:53:13.647Z,17.02
2018-03-03T06:54:13.662Z,17.02
2018-03-03T06:55:13.662Z,17.02
2018-03-03T06:56:13.665Z,17.02
2018-03-03T06:57:13.697Z,17.05
2018-03-03T06:58:13.672Z,17.04
2018-03-03T06:59:13.675Z,17.05
2018-03-03T07:00:13.665Z,17.07
2018-03-03T07:01:13.683Z,17.08
2018-03-03T07:02:13.673Z,17.08
2018-03-03T07:03:13.646Z,17.09
2018-03-03T07:04:13.640Z,17.1
2018-03-03T07:05:13.697Z,17.11
2018-03-03T07:06:13.653Z,17.1
2018-03-03T07:07:13.660Z,17.11
2018-03-03T07:08:13.662Z,17.13
2018-03-03T07:09:13.645Z,17.14
2018-03-03T07:10:13.702Z,17.15
2018-03-03T07:11:13.666Z,17.15
2018-03-03T07:12:13.667Z,17.15
2018-03-03T07:13:13.677Z,17.17
2018-03-03T07:14:13.668Z,17.17
2018-03-03T07:15:13.659Z,17.19
2018-03-03T07:16:13.668Z,17.2
2018-03-03T07:17:13.674Z,17.2
2018-03-03T07:18:13.665Z,17.2
2018-03-03T07:19:13.672Z,17.22
2018-03-03T07:20:13.672Z,17.21
2018-03-03T07:21:13.650Z,17.23
2018-03-03T07:22:13.656Z,17.22
2018-03-03T07:23:13.678Z,17.23
2018-03-03T07:24:13.659Z,17.24
2018-03-03T07:25:13.661Z,17.24
2018-03-03T07:26:13.682Z,17.25
2018-03-03T07:27:13.664Z,17.26
2018-03-03T07:28:13.662Z,17.26
2018-03-03T07:29:13.660Z,17.27
2018-03-03T07:30:13.989Z,17.28
2018-03-03T07:31:13.662Z,17.29
2018-03-03T07:32:13.645Z,17.3
2018-03-03T07:33:13.654Z,17.3
2018-03-03T07:34:13.660Z,17.31
2018-03-03T07:35:13.664Z,17.32
2018-03-03T07:36:13.661Z,17.32
2018-03-03T07:37:13.652Z,17.33
2018-03-03T07:38:13.653Z,17.34
2018-03-03T07:39:13.650Z,17.35
2018-03-03T07:40:13.918Z,17.34
2018-03-03T07:41:13.652Z,17.34
2018-03-03T07:42:13.640Z,17.34
2018-03-03T07:43:13.653Z,17.35
2018-03-03T07:44:13.659Z,17.35
2018-03-03T07:45:13.690Z,17.36
2018-03-03T07:46:13.657Z,17.36
2018-03-03T07:47:13.643Z,17.35
2018-03-03T07:48:13.640Z,17.35
2018-03-03T07:49:13.658Z,17.35
2018-03-03T07:50:13.703Z,17.35
2018-03-03T07:51:13.642Z,17.35
2018-03-03T07:52:13.623Z,17.35
2018-03-03T07:53:13.641Z,17.35
2018-03-03T07:54:13.625Z,17.35
2018-03-03T07:55:13.683Z,17.35
2018-03-03T07:56:13.627Z,17.34
2018-03-03T07:57:13.645Z,17.35
2018-03-03T07:58:13.664Z,17.36
2018-03-03T07:59:13.645Z,17.34
2018-03-03T08:00:13.657Z,17.34
2018-03-03T08:01:13.672Z,17.34
2018-03-03T08:02:13.654Z,17.34
2018-03-03T08:03:13.657Z,17.33
2018-03-03T08:04:13.655Z,17.34
2018-03-03T08:05:13.609Z,17.34
2018-03-03T08:06:13.881Z,17.34
2018-03-03T08:07:13.610Z,17.35
2018-03-03T08:08:13.616Z,17.34
2018-03-03T08:09:13.655Z,17.35
2018-03-03T08:10:13.661Z,17.35
2018-03-03T08:11:13.674Z,17.35
2018-03-03T08:12:13.621Z,17.36
2018-03-03T08:13:13.632Z,17.36
2018-03-03T08:14:13.613Z,17.36
2018-03-03T08:15:13.651Z,17.36
2018-03-03T08:16:13.640Z,17.36
2018-03-03T08:17:13.672Z,17.37
2018-03-03T08:18:13.643Z,17.37
2018-03-03T08:19:13.660Z,17.38
2018-03-03T08:20:13.635Z,17.39
2018-03-03T08:21:13.921Z,17.39
2018-03-03T08:22:13.630Z,17.39
2018-03-03T08:23:13.605Z,17.4
2018-03-03T08:24:13.604Z,17.4
2018-03-03T08:25:13.652Z,17.4
2018-03-03T08:26:13.642Z,17.43
2018-03-03T08:27:13.652Z,17.44
2018-03-03T08:28:13.627Z,17.42
2018-03-03T08:29:13.638Z,17.44
2018-03-03T08:30:13.640Z,17.45
2018-03-03T08:31:13.624Z,17.46
2018-03-03T08:32:13.666Z,17.46
2018-03-03T08:33:13.648Z,17.47
2018-03-03T08:34:13.620Z,17.48
2018-03-03T08:35:13.602Z,17.49
2018-03-03T08:36:13.644Z,17.49
2018-03-03T08:37:13.630Z,17.49
2018-03-03T08:38:13.652Z,17.5
2018-03-03T08:39:13.645Z,17.5
2018-03-03T08:40:13.614Z,17.51
2018-03-03T08:41:13.603Z,17.52
2018-03-03T08:42:13.662Z,17.51
2018-03-03T08:43:13.649Z,17.53
2018-03-03T08:44:13.904Z,17.53
2018-03-03T08:45:13.646Z,17.53
2018-03-03T08:46:13.644Z,17.53
2018-03-03T08:47:13.647Z,17.54
2018-03-03T08:48:13.622Z,17.55
2018-03-03T08:49:13.765Z,17.65
2018-03-03T08:50:13.746Z,17.58
2018-03-03T08:51:13.650Z,17.59
2018-03-03T08:52:13.598Z,17.75
2018-03-03T08:53:13.614Z,17.69
2018-03-03T08:54:13.611Z,17.69
2018-03-03T08:55:13.642Z,17.7
2018-03-03T08:56:13.629Z,17.72
2018-03-03T08:57:13.678Z,17.72
2018-03-03T08:58:13.623Z,17.74
2018-03-03T08:59:13.637Z,17.75
2018-03-03T09:00:13.874Z,17.77
2018-03-03T09:01:13.620Z,17.77
2018-03-03T09:02:13.608Z,17.78
2018-03-03T09:03:13.621Z,17.78
2018-03-03T09:04:13.630Z,17.78
2018-03-03T09:05:13.641Z,17.8
2018-03-03T09:06:13.594Z,17.79
2018-03-03T09:07:13.626Z,17.82
2018-03-03T09:08:13.640Z,17.84
2018-03-03T09:09:13.657Z,17.85
2018-03-03T09:10:13.632Z,17.86
2018-03-03T09:11:13.627Z,17.88
2018-03-03T09:12:13.601Z,17.89
2018-03-03T09:13:13.611Z,17.91
2018-03-03T09:14:13.724Z,17.9
2018-03-03T09:15:13.625Z,17.91
2018-03-03T09:16:13.657Z,17.93
2018-03-03T09:17:13.623Z,17.94
2018-03-03T09:18:13.632Z,17.95
2018-03-03T09:19:13.590Z,17.96
2018-03-03T09:20:13.590Z,17.98
2018-03-03T09:21:13.647Z,18
2018-03-03T09:22:13.593Z,18.02
2018-03-03T09:23:13.581Z,18.02
2018-03-03T09:24:13.610Z,18.03
2018-03-03T09:25:13.637Z,18.04
2018-03-03T09:26:13.591Z,18.05
2018-03-03T09:27:13.593Z,18.09
2018-03-03T09:28:13.591Z,18.04
2018-03-03T09:29:13.631Z,18.02
2018-03-03T09:30:13.611Z,18.02
2018-03-03T09:31:13.585Z,18.01
2018-03-03T09:32:13.620Z,18.02
2018-03-03T09:33:13.608Z,18.01
2018-03-03T09:34:13.583Z,18.02
2018-03-03T09:35:13.591Z,18.01
2018-03-03T09:36:13.618Z,18
2018-03-03T09:37:13.609Z,18
2018-03-03T09:38:13.620Z,18
2018-03-03T09:39:13.580Z,18
2018-03-03T09:40:13.583Z,18.01
2018-03-03T09:41:13.607Z,18
2018-03-03T09:42:13.644Z,17.99
2018-03-03T09:43:13.605Z,18
2018-03-03T09:44:13.575Z,17.99
2018-03-03T09:45:13.577Z,17.99
2018-03-03T09:46:13.605Z,17.99
2018-03-03T09:47:13.636Z,17.99
2018-03-03T09:48:13.580Z,18.01
2018-03-03T09:49:13.563Z,18.01
2018-03-03T09:50:13.583Z,18.02
2018-03-03T09:51:13.583Z,18.02
2018-03-03T09:52:13.599Z,18.02
2018-03-03T09:53:13.608Z,18.01
2018-03-03T09:54:13.605Z,18.01
2018-03-03T09:55:13.577Z,18.02
2018-03-03T09:56:13.571Z,18.02
2018-03-03T09:57:13.842Z,18.02
2018-03-03T09:58:13.579Z,18.01
2018-03-03T09:59:13.588Z,18.02
2018-03-03T10:00:13.587Z,18.01
2018-03-03T10:01:13.606Z,18.01
2018-03-03T10:02:13.596Z,18
2018-03-03T10:03:13.587Z,18.01
2018-03-03T10:04:13.572Z,18.01
2018-03-03T10:05:13.598Z,18
2018-03-03T10:06:13.609Z,18
2018-03-03T10:07:13.605Z,18
2018-03-03T10:08:13.566Z,18.01
2018-03-03T10:09:13.584Z,18.01
2018-03-03T10:10:13.586Z,18.01
2018-03-03T10:11:13.585Z,18.01
2018-03-03T10:12:13.579Z,18
2018-03-03T10:13:13.581Z,18
2018-03-03T10:14:13.576Z,18.01
2018-03-03T10:15:13.575Z,18.01
2018-03-03T10:16:13.611Z,18.01
2018-03-03T10:17:13.587Z,18
2018-03-03T10:18:13.583Z,18
2018-03-03T10:19:13.570Z,18.01
2018-03-03T10:20:13.590Z,18.01
2018-03-03T10:21:13.844Z,18.01
2018-03-03T10:22:13.571Z,18.01
2018-03-03T10:23:13.567Z,18.02
2018-03-03T10:24:13.566Z,18.02
2018-03-03T10:25:13.573Z,18
2018-03-03T10:26:13.601Z,18.02
2018-03-03T10:27:13.581Z,18.01
2018-03-03T10:28:13.569Z,18.02
2018-03-03T10:29:13.567Z,18.02
2018-03-03T10:30:13.574Z,18.04
2018-03-03T10:31:13.581Z,18.05
2018-03-03T10:32:13.845Z,18.05
2018-03-03T10:33:13.556Z,18.05
2018-03-03T10:34:13.591Z,18.05
2018-03-03T10:35:13.566Z,18.05
2018-03-03T10:36:13.570Z,18.07
2018-03-03T10:37:13.600Z,18.05
2018-03-03T10:38:13.834Z,18.06
2018-03-03T10:39:13.558Z,18.06
2018-03-03T10:40:13.567Z,18.06
2018-03-03T10:41:13.608Z,18.07
2018-03-03T10:42:13.551Z,18.07
2018-03-03T10:43:13.615Z,18.08
2018-03-03T10:44:13.570Z,18.07
2018-03-03T10:45:13.554Z,18.07
2018-03-03T10:46:13.563Z,18.09
2018-03-03T10:47:13.557Z,18.08
2018-03-03T10:48:13.568Z,18.09
2018-03-03T10:49:13.579Z,18.1
2018-03-03T10:50:13.663Z,18.1
2018-03-03T10:51:13.658Z,18.1
2018-03-03T10:52:13.598Z,18.1
2018-03-03T10:53:13.558Z,18.1
2018-03-03T10:54:13.566Z,18.1
2018-03-03T10:55:13.597Z,18.1
2018-03-03T10:56:13.565Z,18.11
2018-03-03T10:57:13.573Z,18.11
2018-03-03T10:58:13.585Z,18.12
2018-03-03T10:59:13.561Z,18.11
2018-03-03T11:00:13.575Z,18.11
2018-03-03T11:01:13.932Z,18.12
2018-03-03T11:02:13.587Z,18.11
2018-03-03T11:03:13.561Z,18.14
2018-03-03T11:04:13.559Z,18.14
2018-03-03T11:05:13.571Z,18.14
2018-03-03T11:06:13.574Z,18.15
2018-03-03T11:07:13.542Z,18.16
2018-03-03T11:08:13.549Z,18.14
2018-03-03T11:09:13.569Z,18.16
2018-03-03T11:10:13.581Z,18.14
2018-03-03T11:11:13.555Z,18.15
2018-03-03T11:12:13.565Z,18.15
2018-03-03T11:13:13.864Z,18.16
2018-03-03T11:14:13.553Z,18.17
2018-03-03T11:15:13.549Z,18.16
2018-03-03T11:16:13.599Z,18.15
2018-03-03T11:17:13.554Z,18.17
2018-03-03T11:18:13.609Z,18.17
2018-03-03T11:19:13.574Z,18.18
2018-03-03T11:20:13.561Z,18.18
2018-03-03T11:21:13.554Z,18.19
2018-03-03T11:22:13.572Z,18.18
2018-03-03T11:23:13.603Z,18.19
2018-03-03T11:24:13.578Z,18.18
2018-03-03T11:25:13.552Z,18.19
2018-03-03T11:26:13.541Z,18.18
2018-03-03T11:27:13.552Z,18.2
2018-03-03T11:28:13.610Z,18.21
2018-03-03T11:29:13.563Z,18.21
2018-03-03T11:30:13.542Z,18.28
2018-03-03T11:31:13.593Z,18.24
2018-03-03T11:32:13.565Z,18.24
2018-03-03T11:33:13.608Z,18.24
2018-03-03T11:34:13.547Z,18.25
2018-03-03T11:35:13.590Z,18.26
2018-03-03T11:36:13.574Z,18.28
2018-03-03T11:37:13.548Z,18.27
2018-03-03T11:38:13.576Z,18.28
2018-03-03T11:39:13.551Z,18.28
2018-03-03T11:40:13.550Z,18.29
2018-03-03T11:41:13.582Z,18.29
2018-03-03T11:42:13.554Z,18.29
2018-03-03T11:43:13.574Z,18.31
2018-03-03T11:44:13.551Z,18.32
2018-03-03T11:45:13.561Z,18.34
2018-03-03T11:46:13.600Z,18.34
2018-03-03T11:47:13.535Z,18.35
2018-03-03T11:48:13.560Z,18.35
2018-03-03T11:49:13.542Z,18.36
2018-03-03T11:50:13.544Z,18.38
2018-03-03T11:51:13.545Z,18.37
2018-03-03T11:52:13.543Z,18.39
2018-03-03T11:53:13.597Z,18.38
2018-03-03T11:54:13.591Z,18.37
2018-03-03T11:55:13.541Z,18.37
2018-03-03T11:56:13.539Z,18.37
2018-03-03T11:57:13.538Z,18.37
2018-03-03T11:58:13.609Z,18.37
2018-03-03T11:59:13.831Z,18.37
2018-03-03T12:00:13.552Z,18.38
2018-03-03T12:01:13.549Z,18.38
2018-03-03T12:02:13.529Z,18.39
2018-03-03T12:03:13.563Z,18.49
2018-03-03T12:04:13.576Z,18.45
2018-03-03T12:05:13.532Z,18.44
2018-03-03T12:06:13.550Z,18.43
2018-03-03T12:07:13.562Z,18.43
2018-03-03T12:08:13.530Z,18.42
2018-03-03T12:09:13.566Z,18.42
2018-03-03T12:10:13.547Z,18.42
2018-03-03T12:11:13.555Z,18.42
2018-03-03T12:12:13.538Z,18.41
2018-03-03T12:13:13.535Z,18.4
2018-03-03T12:14:13.562Z,18.39
2018-03-03T12:15:13.524Z,18.4
2018-03-03T12:16:13.519Z,18.41
2018-03-03T12:17:13.550Z,18.39
2018-03-03T12:18:13.528Z,18.4
2018-03-03T12:19:13.586Z,18.4
2018-03-03T12:20:13.527Z,18.4
2018-03-03T12:21:13.525Z,18.41
2018-03-03T12:22:13.559Z,18.4
2018-03-03T12:23:13.540Z,18.39
2018-03-03T12:24:13.547Z,18.4
2018-03-03T12:25:13.800Z,18.41
2018-03-03T12:26:13.537Z,18.43
2018-03-03T12:27:13.537Z,18.42
2018-03-03T12:28:13.535Z,18.41
2018-03-03T12:29:13.539Z,18.41
2018-03-03T12:30:13.571Z,18.41
2018-03-03T12:31:13.536Z,18.41
2018-03-03T12:32:13.518Z,18.4
2018-03-03T12:33:13.526Z,18.41
2018-03-03T12:34:13.525Z,18.37
2018-03-03T12:35:13.547Z,18.38
2018-03-03T12:36:13.518Z,18.33
2018-03-03T12:37:13.532Z,18.32
2018-03-03T12:38:13.531Z,18.31
2018-03-03T12:39:13.531Z,18.3
2018-03-03T12:40:13.558Z,18.31
2018-03-03T12:41:13.521Z,18.32
2018-03-03T12:42:13.587Z,18.31
2018-03-03T12:43:13.530Z,18.31
2018-03-03T12:44:13.534Z,18.31
2018-03-03T12:45:13.508Z,18.31
2018-03-03T12:46:13.500Z,18.32
2018-03-03T12:47:16.960Z,18.31
2018-03-03T12:48:13.496Z,18.31
2018-03-03T12:49:13.505Z,18.3
2018-03-03T12:50:13.502Z,18.3
2018-03-03T12:51:13.602Z,18.31
2018-03-03T12:52:13.650Z,18.31
2018-03-03T12:53:13.519Z,18.3
2018-03-03T12:54:13.499Z,18.3
2018-03-03T12:55:13.535Z,18.3
2018-03-03T12:56:13.507Z,18.3